Time;durP1;ratioP1;P1;durP2;ratioP2;P2;SDS_P1;SDS_P2;PMS_P1;PMS_P2;Temp;Humidity;BMP_temperature;BMP_pressure;BME280_temperature;BME280_humidity;BME280_pressure;Samples;Min_cycle;Max_cycle;Signal;HPM_P1;HPM_P2
2022/04/22 00:03:57;;;;;;;8.85;6.20;;;;;;;;;;8163345;28;20106;-71
2022/04/22 00:07:58;;;;;;;8.05;5.95;;;;;;;;;;8160904;28;20655;-72
2022/04/22 00:11:58;;;;;;;7.15;5.22;;;;;;;;;;8160996;28;20122;-71
2022/04/22 00:15:58;;;;;;;6.22;5.28;;;;;;;;;;8176404;28;20035;-71
2022/04/22 00:19:58;;;;;;;6.80;5.82;;;;;;;;;;8160596;28;20035;-72
2022/04/22 00:23:58;;;;;;;9.57;6.18;;;;;;;;;;8161496;28;20035;-72
2022/04/22 00:27:59;;;;;;;9.75;6.30;;;;;;;;;;8160847;28;20077;-72
2022/04/22 00:31:59;;;;;;;8.88;6.20;;;;;;;;;;8161501;28;20039;-71
2022/04/22 00:35:59;;;;;;;8.55;6.43;;;;;;;;;;8161360;28;20042;-71
2022/04/22 00:39:59;;;;;;;8.73;5.97;;;;;;;;;;8163180;28;20027;-72
2022/04/22 00:43:59;;;;;;;8.77;6.60;;;;;;;;;;8162154;28;20023;-71
2022/04/22 00:48:00;;;;;;;12.98;5.93;;;;;;;;;;8160646;28;20309;-72
2022/04/22 00:52:01;;;;;;;9.43;6.72;;;;;;;;;;8160768;28;20126;-72
2022/04/22 00:56:05;;;;;;;6.90;5.70;;;;;;;;;;8160170;28;20949;-72
2022/04/22 01:00:06;;;;;;;8.25;6.22;;;;;;;;;;8160987;28;20019;-72
2022/04/22 01:12:46;;;;;;;8.00;6.32;;;;;;;;;;8160535;28;20034;-72
2022/04/22 01:16:46;;;;;;;9.17;6.43;;;;;;;;;;8160508;28;20133;-72
2022/04/22 01:20:46;;;;;;;6.93;6.22;;;;;;;;;;8158972;28;20291;-72
2022/04/22 01:24:48;;;;;;;8.70;6.75;;;;;;;;;;8166134;28;20038;-72
2022/04/22 01:28:50;;;;;;;10.55;7.32;;;;;;;;;;8176069;28;20979;-71
2022/04/22 01:32:51;;;;;;;11.02;7.88;;;;;;;;;;8165532;28;20040;-71
2022/04/22 01:36:51;;;;;;;10.70;7.03;;;;;;;;;;8166141;28;20019;-72
2022/04/22 01:40:51;;;;;;;10.88;7.50;;;;;;;;;;8165165;28;20031;-72
2022/04/22 01:44:51;;;;;;;10.00;7.20;;;;;;;;;;8166277;28;20090;-72
2022/04/22 01:48:52;;;;;;;12.48;8.20;;;;;;;;;;8166128;28;20039;-71
2022/04/22 01:52:52;;;;;;;12.90;7.38;;;;;;;;;;8166091;28;20035;-72
2022/04/22 01:56:52;;;;;;;11.15;7.57;;;;;;;;;;8164029;28;20027;-72
2022/04/22 02:00:52;;;;;;;13.48;8.27;;;;;;;;;;8167401;28;20065;-71
2022/04/22 02:04:53;;;;;;;13.53;8.80;;;;;;;;;;8167229;28;20134;-72
2022/04/22 02:08:53;;;;;;;15.37;10.13;;;;;;;;;;8165927;28;20263;-72
2022/04/22 02:12:53;;;;;;;15.03;8.77;;;;;;;;;;8164062;28;20310;-72
2022/04/22 02:16:53;;;;;;;17.05;9.60;;;;;;;;;;8166260;28;20377;-72
2022/04/22 02:20:53;;;;;;;16.77;10.15;;;;;;;;;;8164940;28;20038;-72
2022/04/22 02:24:55;;;;;;;16.58;10.57;;;;;;;;;;8166309;28;20031;-71
2022/04/22 02:28:55;;;;;;;12.85;8.60;;;;;;;;;;8165994;28;20914;-71
2022/04/22 02:32:56;;;;;;;13.35;8.60;;;;;;;;;;8164001;28;20042;-72
2022/04/22 02:36:56;;;;;;;10.85;8.15;;;;;;;;;;8162831;28;20031;-72
2022/04/22 02:45:27;;;;;;;13.00;9.60;;;;;;;;;;8163610;28;20098;-72
2022/04/22 02:49:28;;;;;;;17.30;10.35;;;;;;;;;;8164891;28;20845;-71
2022/04/22 02:53:28;;;;;;;18.17;10.82;;;;;;;;;;8162983;28;20032;-72
2022/04/22 02:57:28;;;;;;;15.52;10.15;;;;;;;;;;8163117;28;20829;-72
2022/04/22 03:01:28;;;;;;;15.65;10.98;;;;;;;;;;8163801;28;20031;-71
2022/04/22 03:05:28;;;;;;;17.77;11.40;;;;;;;;;;8164334;28;20027;-71
2022/04/22 03:09:29;;;;;;;17.30;11.20;;;;;;;;;;8163786;28;20294;-71
2022/04/22 03:13:30;;;;;;;16.13;10.82;;;;;;;;;;8162482;28;20038;-72
2022/04/22 03:17:30;;;;;;;18.70;12.70;;;;;;;;;;8160290;28;20043;-71
2022/04/22 03:21:30;;;;;;;17.42;12.20;;;;;;;;;;8162905;28;20031;-71
2022/04/22 03:25:30;;;;;;;22.58;13.75;;;;;;;;;;8163629;28;20784;-71
2022/04/22 03:29:30;;;;;;;21.02;13.70;;;;;;;;;;8164227;28;20154;-71
2022/04/22 03:33:31;;;;;;;20.08;13.98;;;;;;;;;;8161014;28;20027;-71
2022/04/22 03:37:31;;;;;;;22.00;13.82;;;;;;;;;;8163443;28;20489;-71
2022/04/22 03:41:31;;;;;;;23.83;15.38;;;;;;;;;;8160263;28;20027;-72
2022/04/22 03:45:31;;;;;;;23.60;15.15;;;;;;;;;;8162636;28;20036;-71
2022/04/22 03:49:33;;;;;;;21.77;13.93;;;;;;;;;;8163965;28;20019;-72
2022/04/22 03:53:36;;;;;;;22.83;14.88;;;;;;;;;;8165987;28;20045;-71
2022/04/22 04:01:57;;;;;;;25.08;16.13;;;;;;;;;;8161307;28;20145;-72
2022/04/22 04:05:57;;;;;;;23.98;15.70;;;;;;;;;;8163533;28;20202;-71
2022/04/22 04:18:37;;;;;;;25.65;16.80;;;;;;;;;;8160274;28;20836;-72
2022/04/22 04:26:58;;;;;;;23.58;15.73;;;;;;;;;;8160269;28;20034;-72
2022/04/22 04:30:58;;;;;;;24.58;15.98;;;;;;;;;;8160853;28;20869;-72
2022/04/22 04:34:58;;;;;;;26.95;14.57;;;;;;;;;;8174994;28;20027;-71
2022/04/22 04:38:58;;;;;;;24.85;15.38;;;;;;;;;;8160189;28;20027;-72
2022/04/22 04:43:00;;;;;;;23.00;14.50;;;;;;;;;;8160447;28;20023;-72
2022/04/22 04:47:00;;;;;;;22.90;13.95;;;;;;;;;;8176149;28;20075;-72
2022/04/22 04:51:00;;;;;;;23.05;14.90;;;;;;;;;;8161755;28;20024;-72
2022/04/22 04:55:00;;;;;;;21.52;13.70;;;;;;;;;;8160504;28;20023;-71
2022/04/22 04:59:01;;;;;;;21.15;14.73;;;;;;;;;;8159395;28;20031;-72
2022/04/22 05:03:01;;;;;;;25.60;15.77;;;;;;;;;;8159555;28;20086;-72
2022/04/22 05:07:01;;;;;;;27.63;15.60;;;;;;;;;;8162189;28;20054;-71
2022/04/22 05:11:01;;;;;;;23.73;14.80;;;;;;;;;;8158113;28;20496;-71
2022/04/22 05:15:02;;;;;;;23.73;15.02;;;;;;;;;;8161566;28;20130;-71
2022/04/22 05:19:02;;;;;;;21.60;13.88;;;;;;;;;;8160079;28;20149;-71
2022/04/22 05:23:02;;;;;;;22.00;14.63;;;;;;;;;;8161100;28;20019;-71
2022/04/22 05:27:03;;;;;;;22.65;14.50;;;;;;;;;;8162984;28;20105;-70
2022/04/22 05:35:23;;;;;;;25.92;15.60;;;;;;;;;;8160314;28;20058;-71
2022/04/22 05:39:23;;;;;;;21.08;14.00;;;;;;;;;;8161182;28;20019;-71
2022/04/22 05:43:24;;;;;;;22.30;14.55;;;;;;;;;;8158308;28;20020;-71
2022/04/22 05:47:24;;;;;;;24.63;15.23;;;;;;;;;;8174374;28;20034;-71
2022/04/22 05:51:27;;;;;;;23.40;15.73;;;;;;;;;;8159583;28;20027;-71
2022/04/22 05:55:27;;;;;;;23.83;14.88;;;;;;;;;;8160628;28;20027;-71
2022/04/22 05:59:28;;;;;;;23.02;15.07;;;;;;;;;;8158605;28;20404;-71
2022/04/22 06:03:28;;;;;;;21.55;15.07;;;;;;;;;;8157142;28;20039;-71
2022/04/22 06:07:28;;;;;;;23.70;15.32;;;;;;;;;;8159667;28;20043;-71
2022/04/22 06:11:28;;;;;;;22.40;14.38;;;;;;;;;;8163382;28;20039;-71
2022/04/22 06:15:29;;;;;;;21.10;14.70;;;;;;;;;;8165278;28;20069;-71
2022/04/22 06:19:29;;;;;;;23.00;14.75;;;;;;;;;;8163976;28;20030;-71
2022/04/22 06:23:29;;;;;;;19.42;13.82;;;;;;;;;;8163892;28;20038;-71
2022/04/22 06:27:39;;;;;;;20.13;13.73;;;;;;;;;;8163243;28;20189;-71
2022/04/22 06:31:40;;;;;;;19.55;13.60;;;;;;;;;;8163935;28;20047;-71
2022/04/22 06:35:40;;;;;;;19.38;13.73;;;;;;;;;;8165293;28;20039;-71
2022/04/22 06:48:19;;;;;;;19.05;12.80;;;;;;;;;;8163329;28;20039;-71
2022/04/22 06:52:20;;;;;;;16.00;11.10;;;;;;;;;;8163005;28;20034;-71
2022/04/22 06:56:29;;;;;;;14.27;11.40;;;;;;;;;;8163187;28;20934;-71
2022/04/22 07:00:29;;;;;;;15.30;11.75;;;;;;;;;;8163513;28;20059;-71
2022/04/22 07:04:30;;;;;;;15.73;10.50;;;;;;;;;;8162179;28;20034;-71
2022/04/22 07:08:30;;;;;;;14.30;10.75;;;;;;;;;;8167253;28;20023;-72
2022/04/22 07:12:31;;;;;;;14.73;10.68;;;;;;;;;;8159938;28;20161;-71
2022/04/22 07:16:31;;;;;;;14.05;11.30;;;;;;;;;;8163419;28;20039;-71
2022/04/22 07:20:31;;;;;;;13.67;10.50;;;;;;;;;;8161535;28;20058;-71
2022/04/22 07:24:32;;;;;;;13.30;10.98;;;;;;;;;;8164570;28;20050;-72
2022/04/22 07:28:32;;;;;;;12.50;9.97;;;;;;;;;;8163829;28;20125;-72
2022/04/22 07:32:33;;;;;;;12.25;9.45;;;;;;;;;;8161104;28;20295;-72
2022/04/22 07:36:33;;;;;;;15.77;9.30;;;;;;;;;;8161807;28;20030;-72
2022/04/22 07:40:36;;;;;;;11.17;9.90;;;;;;;;;;8162096;28;20028;-71
2022/04/22 07:48:56;;;;;;;13.07;9.30;;;;;;;;;;8161351;28;20409;-72
2022/04/22 07:52:56;;;;;;;12.43;9.55;;;;;;;;;;8160121;28;20020;-72
2022/04/22 07:56:57;;;;;;;13.50;10.23;;;;;;;;;;8160301;28;20129;-72
2022/04/22 08:00:57;;;;;;;11.57;9.57;;;;;;;;;;8161582;28;20035;-72
2022/04/22 08:04:57;;;;;;;11.32;9.02;;;;;;;;;;8162286;28;20895;-72
2022/04/22 08:08:57;;;;;;;10.73;9.15;;;;;;;;;;8162771;28;20043;-72
2022/04/22 08:12:58;;;;;;;12.70;9.30;;;;;;;;;;8153153;28;20790;-72
2022/04/22 08:16:59;;;;;;;14.50;9.47;;;;;;;;;;8157335;28;20034;-72
2022/04/22 08:20:59;;;;;;;11.45;9.05;;;;;;;;;;8158538;28;20285;-72
2022/04/22 08:24:59;;;;;;;10.80;8.80;;;;;;;;;;8162287;28;20034;-72
2022/04/22 08:28:59;;;;;;;9.98;8.32;;;;;;;;;;8158557;28;20126;-72
2022/04/22 08:33:01;;;;;;;10.10;8.23;;;;;;;;;;8154200;28;20490;-72
2022/04/22 08:37:01;;;;;;;9.70;8.63;;;;;;;;;;8159190;28;21021;-73
2022/04/22 08:41:02;;;;;;;10.82;7.80;;;;;;;;;;8160235;28;20023;-72
2022/04/22 08:45:03;;;;;;;10.55;8.10;;;;;;;;;;8160087;28;20027;-73
2022/04/22 08:53:23;;;;;;;9.55;8.55;;;;;;;;;;8160333;28;20178;-72
2022/04/22 08:57:24;;;;;;;8.45;7.60;;;;;;;;;;8161697;28;20019;-73
2022/04/22 09:01:24;;;;;;;9.02;8.13;;;;;;;;;;8160117;28;20474;-72
2022/04/22 09:05:25;;;;;;;9.80;7.85;;;;;;;;;;8162267;28;20027;-72
2022/04/22 09:09:26;;;;;;;10.45;8.98;;;;;;;;;;8163707;28;20089;-72
2022/04/22 09:13:32;;;;;;;12.35;8.50;;;;;;;;;;8160504;28;20160;-72
2022/04/22 09:17:33;;;;;;;8.93;8.02;;;;;;;;;;8160561;28;20039;-72
2022/04/22 09:21:33;;;;;;;8.77;7.97;;;;;;;;;;8174676;28;20045;-72
2022/04/22 09:25:36;;;;;;;9.00;7.50;;;;;;;;;;8159735;28;20481;-72
2022/04/22 09:29:40;;;;;;;7.40;6.70;;;;;;;;;;8159561;28;20043;-72
2022/04/22 09:33:44;;;;;;;9.15;8.18;;;;;;;;;;8157205;28;20039;-72
2022/04/22 09:46:32;;;;;;;8.52;7.68;;;;;;;;;;8168083;28;20121;-74
2022/04/22 09:50:40;;;;;;;8.68;7.57;;;;;;;;;;8165185;28;20050;-73
2022/04/22 09:54:53;;;;;;;10.13;7.53;;;;;;;;;;8168283;28;20603;-73
2022/04/22 09:58:54;;;;;;;;;;;;;;;;;;8165188;28;20027;-73
2022/04/22 10:02:55;;;;;;;8.15;6.93;;;;;;;;;;8166347;28;20039;-73
2022/04/22 10:06:56;;;;;;;8.35;6.78;;;;;;;;;;8167267;28;20027;-73
2022/04/22 10:11:00;;;;;;;8.57;6.57;;;;;;;;;;8171266;28;20031;-73
2022/04/22 10:15:01;;;;;;;7.85;7.05;;;;;;;;;;8170161;28;20023;-73
2022/04/22 10:19:01;;;;;;;7.68;6.97;;;;;;;;;;8165075;28;20038;-73
2022/04/22 10:23:02;;;;;;;8.82;6.80;;;;;;;;;;8166171;28;20110;-73
2022/04/22 10:27:03;;;;;;;8.77;6.80;;;;;;;;;;8160168;28;20114;-73
2022/04/22 10:31:03;;;;;;;9.98;6.88;;;;;;;;;;8162907;28;20120;-73
2022/04/22 10:35:05;;;;;;;7.35;6.65;;;;;;;;;;8165046;28;20162;-72
2022/04/22 10:39:06;;;;;;;7.30;6.65;;;;;;;;;;8165889;28;20591;-72
2022/04/22 10:43:07;;;;;;;9.60;6.75;;;;;;;;;;8165605;28;20639;-72
2022/04/22 10:47:13;;;;;;;8.35;5.95;;;;;;;;;;8166694;28;20039;-72
2022/04/22 10:51:14;;;;;;;8.85;6.50;;;;;;;;;;8165653;28;20058;-72
2022/04/22 10:55:15;;;;;;;7.20;6.47;;;;;;;;;;8168548;28;20026;-73
2022/04/22 10:59:15;;;;;;;7.82;6.30;;;;;;;;;;8170389;28;20028;-73
2022/04/22 11:03:19;;;;;;;8.98;6.20;;;;;;;;;;8164009;28;20074;-73
2022/04/22 11:07:39;;;;;;;6.78;6.07;;;;;;;;;;8168287;28;20030;-72
2022/04/22 11:11:42;;;;;;;6.45;5.75;;;;;;;;;;8167964;28;20764;-73
2022/04/22 11:15:42;;;;;;;6.47;5.68;;;;;;;;;;8171613;28;20673;-73
2022/04/22 11:19:59;;;;;;;5.70;5.20;;;;;;;;;;8163068;28;20126;-73
2022/04/22 11:23:59;;;;;;;6.40;5.80;;;;;;;;;;8165458;28;20031;-72
2022/04/22 11:28:02;;;;;;;6.05;5.43;;;;;;;;;;8164801;28;20023;-72
2022/04/22 11:32:12;;;;;;;4.83;4.40;;;;;;;;;;8164113;28;20075;-73
2022/04/22 11:36:12;;;;;;;8.32;5.32;;;;;;;;;;8163091;28;20031;-73
2022/04/22 11:40:18;;;;;;;7.50;5.10;;;;;;;;;;8162344;28;20097;-73
2022/04/22 11:44:19;;;;;;;5.22;4.70;;;;;;;;;;8162667;28;20928;-73
2022/04/22 11:48:20;;;;;;;6.30;5.40;;;;;;;;;;8162602;28;20057;-73
2022/04/22 11:52:20;;;;;;;5.13;4.63;;;;;;;;;;8163078;28;20085;-73
2022/04/22 11:56:21;;;;;;;9.50;4.97;;;;;;;;;;8163355;28;20027;-73
2022/04/22 12:09:03;;;;;;;6.18;4.32;;;;;;;;;;8159779;28;20110;-73
2022/04/22 12:13:04;;;;;;;5.45;4.90;;;;;;;;;;8159609;28;20073;-73
2022/04/22 12:17:04;;;;;;;5.38;4.60;;;;;;;;;;8162181;28;20071;-72
2022/04/22 12:21:05;;;;;;;4.65;4.13;;;;;;;;;;8159933;28;20026;-72
2022/04/22 12:25:08;;;;;;;5.68;4.43;;;;;;;;;;8160382;28;20053;-73
2022/04/22 12:29:10;;;;;;;5.10;4.35;;;;;;;;;;8162415;28;20058;-72
2022/04/22 12:33:17;;;;;;;4.97;4.50;;;;;;;;;;8161638;28;20081;-72
2022/04/22 12:37:18;;;;;;;4.38;3.70;;;;;;;;;;8162573;28;20035;-73
2022/04/22 12:41:18;;;;;;;7.60;4.35;;;;;;;;;;8162870;28;20054;-73
2022/04/22 12:54:02;;;;;;;6.97;4.20;;;;;;;;;;8164068;28;20038;-73
2022/04/22 12:58:06;;;;;;;5.13;3.75;;;;;;;;;;8164521;28;20055;-73
2022/04/22 13:02:08;;;;;;;4.85;4.20;;;;;;;;;;8165384;28;20178;-73
2022/04/22 13:06:08;;;;;;;4.43;3.67;;;;;;;;;;8162314;28;20078;-73
2022/04/22 13:10:12;;;;;;;4.00;3.60;;;;;;;;;;8160332;28;20764;-72
2022/04/22 13:14:12;;;;;;;6.35;4.07;;;;;;;;;;8159806;28;20019;-73
2022/04/22 13:18:13;;;;;;;5.93;4.07;;;;;;;;;;8159669;28;20066;-73
2022/04/22 13:22:13;;;;;;;6.55;4.32;;;;;;;;;;8166707;28;20124;-73
2022/04/22 13:26:13;;;;;;;5.13;4.10;;;;;;;;;;8169631;28;20027;-73
2022/04/22 13:30:15;;;;;;;4.47;4.07;;;;;;;;;;8168438;28;20706;-72
2022/04/22 13:34:15;;;;;;;4.70;4.28;;;;;;;;;;8167437;28;20019;-73
2022/04/22 13:38:16;;;;;;;5.10;3.90;;;;;;;;;;8167465;28;20022;-73
2022/04/22 13:42:18;;;;;;;5.07;3.83;;;;;;;;;;8168374;28;20027;-72
2022/04/22 13:54:57;;;;;;;5.22;4.05;;;;;;;;;;8167332;28;21810;-72
2022/04/22 13:58:57;;;;;;;4.47;4.07;;;;;;;;;;8163004;28;20024;-73
2022/04/22 14:02:57;;;;;;;4.97;3.97;;;;;;;;;;8162784;28;20102;-73
2022/04/22 14:06:57;;;;;;;4.38;3.97;;;;;;;;;;8180838;28;20023;-72
2022/04/22 14:10:58;;;;;;;6.20;4.30;;;;;;;;;;8164368;28;20035;-73
2022/04/22 14:14:58;;;;;;;6.43;4.78;;;;;;;;;;8163475;28;20090;-72
2022/04/22 14:18:58;;;;;;;8.90;3.30;;;;;;;;;;8167464;28;20055;-72
2022/04/22 14:22:58;;;;;;;4.22;3.83;;;;;;;;;;8165320;28;20023;-72
2022/04/22 14:27:01;;;;;;;5.28;3.78;;;;;;;;;;8166038;28;20122;-72
2022/04/22 14:31:01;;;;;;;6.15;4.03;;;;;;;;;;8162645;28;20055;-72
2022/04/22 14:35:02;;;;;;;7.57;3.78;;;;;;;;;;8168643;28;20031;-72
2022/04/22 14:39:02;;;;;;;6.40;3.15;;;;;;;;;;8163560;28;20395;-73
2022/04/22 14:43:03;;;;;;;5.25;3.55;;;;;;;;;;8161040;28;20033;-72
2022/04/22 14:47:07;;;;;;;5.18;4.20;;;;;;;;;;8158710;28;20066;-73
2022/04/22 14:51:07;;;;;;;4.93;3.50;;;;;;;;;;8159341;28;20106;-73
2022/04/22 14:55:08;;;;;;;5.00;3.00;;;;;;;;;;8159266;28;20031;-72
2022/04/22 14:59:10;;;;;;;4.47;3.58;;;;;;;;;;8161623;28;20031;-72
2022/04/22 15:03:12;;;;;;;4.82;3.72;;;;;;;;;;8157836;28;20024;-72
2022/04/22 15:07:12;;;;;;;5.47;3.90;;;;;;;;;;8159956;28;20385;-73
2022/04/22 15:11:12;;;;;;;5.78;3.50;;;;;;;;;;8158816;28;20024;-73
2022/04/22 15:15:13;;;;;;;3.50;3.20;;;;;;;;;;8157664;28;20037;-72
2022/04/22 15:27:51;;;;;;;6.05;3.20;;;;;;;;;;8156856;28;20033;-73
2022/04/22 15:31:52;;;;;;;4.47;3.58;;;;;;;;;;8159648;28;20767;-72
2022/04/22 15:35:52;;;;;;;5.38;4.05;;;;;;;;;;8158542;28;20090;-72
2022/04/22 15:39:58;;;;;;;5.43;3.30;;;;;;;;;;8160795;28;20027;-71
2022/04/22 15:43:59;;;;;;;4.28;3.35;;;;;;;;;;8156724;28;20050;-72
2022/04/22 15:47:59;;;;;;;3.20;2.90;;;;;;;;;;8158702;28;20032;-72
2022/04/22 15:51:59;;;;;;;8.70;2.95;;;;;;;;;;8156706;28;20789;-72
2022/04/22 15:56:00;;;;;;;5.85;2.75;;;;;;;;;;8160084;28;20133;-72
2022/04/22 16:00:01;;;;;;;3.38;2.72;;;;;;;;;;8157699;28;20019;-72
2022/04/22 16:04:01;;;;;;;3.60;2.97;;;;;;;;;;8160083;28;20035;-72
2022/04/22 16:08:03;;;;;;;5.20;2.95;;;;;;;;;;8166885;28;20066;-72
2022/04/22 16:16:22;;;;;;;4.70;2.97;;;;;;;;;;8155499;28;20114;-72
2022/04/22 16:20:23;;;;;;;3.58;2.60;;;;;;;;;;8158759;28;20031;-71
2022/04/22 16:24:24;;;;;;;5.20;2.67;;;;;;;;;;8158450;28;20872;-71
2022/04/22 16:28:24;;;;;;;5.53;3.22;;;;;;;;;;8156439;28;20468;-72
2022/04/22 16:32:24;;;;;;;7.85;2.90;;;;;;;;;;8157604;28;20050;-71
2022/04/22 16:36:24;;;;;;;3.78;2.88;;;;;;;;;;8159448;28;20033;-71
2022/04/22 16:40:25;;;;;;;5.57;2.97;;;;;;;;;;8160293;28;20026;-72
2022/04/22 16:44:26;;;;;;;11.90;2.80;;;;;;;;;;8160519;28;20130;-71
2022/04/22 16:48:27;;;;;;;3.35;2.67;;;;;;;;;;8158170;28;20042;-72
2022/04/22 16:52:27;;;;;;;3.97;2.72;;;;;;;;;;8157390;28;20026;-71
2022/04/22 16:56:28;;;;;;;3.63;2.40;;;;;;;;;;8158406;28;20074;-71
2022/04/22 17:00:31;;;;;;;4.75;2.60;;;;;;;;;;8156812;28;20138;-72
2022/04/22 17:04:33;;;;;;;4.63;2.70;;;;;;;;;;8159355;28;20774;-71
2022/04/22 17:08:33;;;;;;;5.72;2.83;;;;;;;;;;8158222;28;20023;-72
2022/04/22 17:12:34;;;;;;;3.15;2.58;;;;;;;;;;8157478;28;20045;-72
2022/04/22 17:25:13;;;;;;;3.60;2.90;;;;;;;;;;8156915;28;20030;-71
2022/04/22 17:29:15;;;;;;;3.88;2.80;;;;;;;;;;8158260;28;20852;-72
2022/04/22 17:33:15;;;;;;;6.72;3.15;;;;;;;;;;8156832;28;20098;-72
2022/04/22 17:37:16;;;;;;;4.93;3.15;;;;;;;;;;8168692;28;20027;-72
2022/04/22 17:41:16;;;;;;;6.23;3.60;;;;;;;;;;8158975;28;20046;-72
2022/04/22 17:45:16;;;;;;;7.80;3.17;;;;;;;;;;8157860;28;20274;-71
2022/04/22 17:49:16;;;;;;;4.20;3.28;;;;;;;;;;8156824;28;20022;-71
2022/04/22 17:53:17;;;;;;;4.57;3.00;;;;;;;;;;8155416;28;20055;-72
2022/04/22 17:57:18;;;;;;;4.43;3.60;;;;;;;;;;8158296;28;20102;-72
2022/04/22 18:01:18;;;;;;;7.18;3.47;;;;;;;;;;8156348;28;20035;-72
2022/04/22 18:05:21;;;;;;;3.90;3.40;;;;;;;;;;8159371;28;20103;-72
2022/04/22 18:09:21;;;;;;;8.43;3.47;;;;;;;;;;8162733;28;20091;-71
2022/04/22 18:13:22;;;;;;;5.88;3.70;;;;;;;;;;8162625;28;20486;-71
2022/04/22 18:17:22;;;;;;;4.38;3.67;;;;;;;;;;8164819;28;20035;-71
2022/04/22 18:21:22;;;;;;;4.35;3.60;;;;;;;;;;8165346;28;20027;-71
2022/04/22 18:25:22;;;;;;;4.53;3.50;;;;;;;;;;8167448;28;20178;-72
2022/04/22 18:29:22;;;;;;;5.85;3.58;;;;;;;;;;8161980;28;20142;-71
2022/04/22 18:33:23;;;;;;;8.15;3.65;;;;;;;;;;8161665;28;20035;-71
2022/04/22 18:37:26;;;;;;;4.28;3.88;;;;;;;;;;8162730;28;20468;-71
2022/04/22 18:41:29;;;;;;;5.10;4.15;;;;;;;;;;8162124;28;20011;-71
2022/04/22 18:45:29;;;;;;;5.57;3.97;;;;;;;;;;8161266;28;20399;-71
2022/04/22 18:49:29;;;;;;;4.97;3.80;;;;;;;;;;8162332;28;20034;-71
2022/04/22 18:53:30;;;;;;;4.32;3.92;;;;;;;;;;8168710;28;20831;-71
2022/04/22 18:57:32;;;;;;;5.32;4.30;;;;;;;;;;8162148;28;20019;-72
2022/04/22 19:01:32;;;;;;;5.55;4.70;;;;;;;;;;8159846;28;20043;-71
2022/04/22 19:05:32;;;;;;;8.52;4.88;;;;;;;;;;8161030;28;20787;-71
2022/04/22 19:09:33;;;;;;;5.22;4.70;;;;;;;;;;8161041;28;20033;-71
2022/04/22 19:13:33;;;;;;;6.65;4.90;;;;;;;;;;8161610;28;20027;-71
2022/04/22 19:17:33;;;;;;;7.60;5.45;;;;;;;;;;8159283;28;20031;-71
2022/04/22 19:21:33;;;;;;;8.40;4.63;;;;;;;;;;8161697;28;20038;-70
2022/04/22 19:25:35;;;;;;;8.25;5.07;;;;;;;;;;8159421;28;20081;-71
2022/04/22 19:29:35;;;;;;;5.15;4.65;;;;;;;;;;8158541;28;20157;-71
2022/04/22 19:33:35;;;;;;;5.97;4.75;;;;;;;;;;8158755;28;20104;-71
2022/04/22 19:41:54;;;;;;;6.63;5.03;;;;;;;;;;8160382;28;20077;-71
2022/04/22 19:45:59;;;;;;;5.50;5.00;;;;;;;;;;8157197;28;20031;-71
2022/04/22 19:49:59;;;;;;;8.30;5.25;;;;;;;;;;8158235;28;20015;-71
2022/04/22 19:54:01;;;;;;;9.35;5.45;;;;;;;;;;8160514;28;20033;-71
2022/04/22 19:58:02;;;;;;;6.55;5.20;;;;;;;;;;8160615;28;20086;-72
2022/04/22 20:02:02;;;;;;;6.28;5.20;;;;;;;;;;8143899;28;20039;-72
2022/04/22 20:06:03;;;;;;;5.70;5.15;;;;;;;;;;8131494;29;20023;-72
2022/04/22 20:10:04;;;;;;;5.50;5.00;;;;;;;;;;8129342;29;20028;-72
2022/04/22 20:14:04;;;;;;;6.82;5.20;;;;;;;;;;8125162;29;20024;-72
2022/04/22 20:18:04;;;;;;;7.60;5.70;;;;;;;;;;8168024;28;20089;-71
2022/04/22 20:22:05;;;;;;;6.50;5.65;;;;;;;;;;8155813;28;20283;-71
2022/04/22 20:26:07;;;;;;;6.50;5.27;;;;;;;;;;8150586;28;20031;-71
2022/04/22 20:30:07;;;;;;;8.07;5.50;;;;;;;;;;8157955;28;20200;-71
2022/04/22 20:34:07;;;;;;;7.05;5.50;;;;;;;;;;8151158;28;20023;-71
2022/04/22 20:42:32;;;;;;;;;;;;;;;;;;8151959;28;20330;-71
2022/04/22 20:46:34;;;;;;;10.13;5.78;;;;;;;;;;8163508;28;19919;-71
2022/04/22 20:50:35;;;;;;;9.35;6.13;;;;;;;;;;8129838;29;20159;-71
2022/04/22 20:54:35;;;;;;;6.78;6.07;;;;;;;;;;8143036;28;20019;-71
2022/04/22 20:58:35;;;;;;;6.60;5.90;;;;;;;;;;8129603;29;20034;-71
2022/04/22 21:02:36;;;;;;;6.65;5.90;;;;;;;;;;8147905;28;20039;-71
2022/04/22 21:06:37;;;;;;;7.10;5.93;;;;;;;;;;8160605;28;20113;-71
2022/04/22 21:10:37;;;;;;;6.15;5.55;;;;;;;;;;8159455;28;20575;-70
2022/04/22 21:14:37;;;;;;;6.47;5.33;;;;;;;;;;8162026;28;20024;-71
2022/04/22 21:18:38;;;;;;;8.83;5.43;;;;;;;;;;8161417;28;20075;-71
2022/04/22 21:22:38;;;;;;;6.60;5.30;;;;;;;;;;8163325;28;20126;-71
2022/04/22 21:26:39;;;;;;;9.02;5.10;;;;;;;;;;8161035;28;20035;-71
2022/04/22 21:30:39;;;;;;;6.68;5.57;;;;;;;;;;8161148;28;20142;-71
2022/04/22 21:34:40;;;;;;;8.57;5.38;;;;;;;;;;8160234;28;20031;-71
2022/04/22 21:38:40;;;;;;;6.55;5.75;;;;;;;;;;8174281;28;20142;-71
2022/04/22 21:42:41;;;;;;;6.57;5.53;;;;;;;;;;8164572;28;20037;-71
2022/04/22 21:46:41;;;;;;;6.07;4.93;;;;;;;;;;8167287;28;20035;-71
2022/04/22 21:50:41;;;;;;;10.18;5.30;;;;;;;;;;8164742;28;20059;-71
2022/04/22 21:54:41;;;;;;;6.05;5.15;;;;;;;;;;8166079;28;20031;-71
2022/04/22 21:58:42;;;;;;;7.28;5.57;;;;;;;;;;8167029;28;20038;-71
2022/04/22 22:02:42;;;;;;;7.38;5.95;;;;;;;;;;8162749;28;20043;-71
2022/04/22 22:06:42;;;;;;;7.85;6.45;;;;;;;;;;8179844;28;20027;-71
2022/04/22 22:10:43;;;;;;;6.68;5.57;;;;;;;;;;8164101;28;20035;-71
2022/04/22 22:14:43;;;;;;;6.93;5.85;;;;;;;;;;8165250;28;20030;-71
2022/04/22 22:18:43;;;;;;;6.72;6.03;;;;;;;;;;8165375;28;20059;-71
2022/04/22 22:22:44;;;;;;;7.95;6.68;;;;;;;;;;8167013;28;21045;-71
2022/04/22 22:26:44;;;;;;;8.52;6.47;;;;;;;;;;8168231;28;20036;-71
2022/04/22 22:30:45;;;;;;;8.32;6.63;;;;;;;;;;8163817;28;20158;-71
2022/04/22 22:34:45;;;;;;;7.33;6.53;;;;;;;;;;8163432;28;20041;-70
2022/04/22 22:38:45;;;;;;;8.98;7.00;;;;;;;;;;8162806;28;20043;-71
2022/04/22 22:42:45;;;;;;;10.40;7.43;;;;;;;;;;8165228;28;20132;-71
2022/04/22 22:46:45;;;;;;;8.00;7.13;;;;;;;;;;8162444;28;20035;-71
2022/04/22 22:50:46;;;;;;;8.30;7.30;;;;;;;;;;8163513;28;20294;-71
2022/04/22 22:54:46;;;;;;;8.88;7.00;;;;;;;;;;8164723;28;20094;-70
2022/04/22 22:58:47;;;;;;;9.30;7.30;;;;;;;;;;8164323;28;20045;-70
2022/04/22 23:02:49;;;;;;;9.77;7.43;;;;;;;;;;8163078;28;20035;-70
2022/04/22 23:06:49;;;;;;;10.70;8.13;;;;;;;;;;8163798;28;20831;-71
2022/04/22 23:10:50;;;;;;;8.35;7.55;;;;;;;;;;8164149;28;20035;-71
2022/04/22 23:14:52;;;;;;;10.55;8.38;;;;;;;;;;8163460;28;20041;-71
2022/04/22 23:18:52;;;;;;;13.93;7.82;;;;;;;;;;8162320;28;20035;-70
2022/04/22 23:22:52;;;;;;;13.53;7.80;;;;;;;;;;8164165;28;20535;-71
2022/04/22 23:26:53;;;;;;;8.55;7.50;;;;;;;;;;8163454;28;20027;-71
2022/04/22 23:30:53;;;;;;;8.63;7.65;;;;;;;;;;8164270;28;20039;-70
2022/04/22 23:34:53;;;;;;;8.00;7.13;;;;;;;;;;8166182;28;20031;-71
2022/04/22 23:38:54;;;;;;;9.38;7.53;;;;;;;;;;8167636;28;20105;-71
2022/04/22 23:42:54;;;;;;;10.35;7.95;;;;;;;;;;8164488;28;20027;-71
2022/04/22 23:46:54;;;;;;;9.80;8.27;;;;;;;;;;8162865;28;20035;-71
2022/04/22 23:50:55;;;;;;;10.10;8.50;;;;;;;;;;8160368;28;20291;-71
2022/04/22 23:54:55;;;;;;;9.45;8.45;;;;;;;;;;8162836;28;20054;-70
2022/04/22 23:58:56;;;;;;;13.02;8.52;;;;;;;;;;8163151;28;20023;-71
